EmailTwitter


Observations de surface / France / LFPO (07149)

Régions: Québec | Canada | États-Unis | Europe | France | UK | Ailleurs
Station
Affichage
Infos & localisation pour LFPO (07149) | Aide pour décoder les METARs

Observations prises le 2017-07-21 à 18H30 UTC à PARIS/ORLY, FR (LFPO)

Température: 23.0 Celsius

Point de rosée: 8.0 Celsius

Humidité relative: 38%

Indice Humidex: 23.

Vents: Sud-ouest à 11 km/h ou 6 noeuds.

Pression au niveau moyen de la mer: 100.90 kilopascals.

Observation METAR:

LFPO 211830Z 24006KT 200V270 CAVOK 23/08 Q1009 NOSIG=